Independence Township, Michigan
Current Conditions -  °F | °C
As of 5:12 AM on Saturday 25 Oct 2014 (Local Time) from KPTK Reporting Station
Haze Haze  
Wind Chill: 47°   Ceiling: 9000
Heat Index: 47°   Visibility: 3mi
Dew Point: 45°   Wind: 0mph
Humidity: 93%   Direction: NA
Pressure: 29.85"   Gusts: NA
Location:  42.7676°N, 83.4033°W
Report Text: KPTK 250912Z AUTO 00000KT 3SM BR BKN090 08/07 A2985 RMK AO2 T00830072
Loading
Personal Weather Stations






























Interactive Weather Map
Tropical Storm Tracking
New forecast layout! Learn more

10-Day Weather Forecast

Advertisements
Track Severe Weather on mobile